Time;durP1;ratioP1;P1;durP2;ratioP2;P2;SDS_P1;SDS_P2;PMS_P1;PMS_P2;Temp;Humidity;BMP_temperature;BMP_pressure;BME280_temperature;BME280_humidity;BME280_pressure;Samples;Min_cycle;Max_cycle;Signal;HPM_P1;HPM_P2
2022/05/12 00:02:05;;;;;;;1.63;0.60;;;;;;;13.73;70.37;101455.66;4996176;28;96649;-35
2022/05/12 00:04:32;;;;;;;0.60;0.50;;;;;;;13.80;70.58;101477.91;5014070;28;106420;-35
2022/05/12 00:06:58;;;;;;;1.08;0.60;;;;;;;13.70;70.43;101466.72;4999189;28;101074;-35
2022/05/12 00:09:24;;;;;;;2.63;0.75;;;;;;;13.66;70.04;101481.53;5017092;28;99257;-35
2022/05/12 00:11:50;;;;;;;1.63;0.40;;;;;;;13.59;69.98;101475.59;4997952;28;97781;-35
2022/05/12 00:14:16;;;;;;;0.47;0.32;;;;;;;13.67;70.24;101482.41;5017716;28;96599;-35
2022/05/12 00:16:42;;;;;;;2.28;0.80;;;;;;;13.60;70.66;101485.50;4998983;28;101014;-35
2022/05/12 00:19:07;;;;;;;2.05;0.60;;;;;;;13.62;70.56;101485.41;5017016;28;97756;-35
2022/05/12 00:21:32;;;;;;;1.75;0.63;;;;;;;13.64;70.88;101498.94;5017244;28;96522;-35
2022/05/12 00:23:58;;;;;;;3.17;0.80;;;;;;;13.65;70.34;101511.56;5017448;28;96746;-35
2022/05/12 00:26:29;;;;;;;1.17;0.68;;;;;;;13.63;70.28;101508.06;5016968;28;99357;-35
2022/05/12 00:28:57;;;;;;;0.75;0.60;;;;;;;13.60;70.36;101499.09;4999302;28;101062;-35
2022/05/12 00:31:23;;;;;;;2.50;0.75;;;;;;;13.54;70.36;101496.78;4999207;28;96699;-35
2022/05/12 00:33:48;;;;;;;0.63;0.47;;;;;;;13.48;70.61;101507.19;4998910;28;97108;-35
2022/05/12 00:36:14;;;;;;;1.90;0.60;;;;;;;13.49;70.63;101512.53;5016515;28;97924;-35
2022/05/12 00:38:40;;;;;;;1.95;0.85;;;;;;;13.44;71.00;101511.94;5016632;28;99123;-35
2022/05/12 00:41:05;;;;;;;4.35;0.77;;;;;;;13.45;71.15;101510.97;5017374;28;96878;-35
2022/05/12 00:43:44;;;;;;;5.72;0.70;;;;;;;13.45;71.26;101515.56;5016879;28;99791;-35
2022/05/12 00:46:22;;;;;;;1.45;0.65;;;;;;;13.38;70.59;101509.63;5016558;28;98758;-35
2022/05/12 00:48:49;;;;;;;1.42;0.82;;;;;;;13.35;70.49;101502.53;4998591;28;100731;-35
2022/05/12 00:51:19;;;;;;;4.38;0.65;;;;;;;13.39;70.72;101519.50;4998827;28;96597;-35
2022/05/12 00:53:48;;;;;;;1.95;0.50;;;;;;;13.39;71.24;101508.63;4999146;28;96989;-35
2022/05/12 00:56:17;;;;;;;0.55;0.50;;;;;;;13.38;70.60;101513.22;4998547;28;100835;-35
2022/05/12 00:58:44;;;;;;;1.27;0.70;;;;;;;13.31;70.42;101511.84;5016193;28;98884;-35
2022/05/12 01:01:11;;;;;;;0.90;0.50;;;;;;;13.33;69.75;101515.34;4998332;28;96686;-35
2022/05/12 01:03:39;;;;;;;1.08;0.57;;;;;;;13.28;70.60;101519.34;4998632;28;96538;-35
2022/05/12 01:06:06;;;;;;;0.75;0.40;;;;;;;13.24;70.58;101523.19;4998173;28;101021;-35
2022/05/12 01:08:33;;;;;;;0.98;0.52;;;;;;;13.20;70.36;101513.44;5014901;28;100921;-35
2022/05/12 01:11:03;;;;;;;4.60;0.80;;;;;;;13.25;70.71;101524.91;4998351;28;96578;-35
2022/05/12 01:13:29;;;;;;;2.45;0.80;;;;;;;13.12;70.57;101525.66;5015880;28;98171;-35
2022/05/12 01:16:00;;;;;;;2.58;0.90;;;;;;;13.17;70.40;101525.41;4997673;28;100890;-35
2022/05/12 01:18:28;;;;;;;1.17;0.55;;;;;;;13.16;70.60;101529.97;5016471;28;97259;-35
2022/05/12 01:20:54;;;;;;;0.50;0.45;;;;;;;13.16;70.52;101531.81;4998418;28;96578;-35
2022/05/12 01:23:19;;;;;;;1.92;0.47;;;;;;;13.15;71.03;101533.63;5016627;28;96781;-35
2022/05/12 01:25:44;;;;;;;1.57;0.80;;;;;;;13.11;70.55;101523.06;5015141;28;113865;-35
2022/05/12 01:28:10;;;;;;;1.25;0.82;;;;;;;13.10;70.74;101521.28;5015329;28;122234;-35
2022/05/12 01:30:35;;;;;;;0.68;0.35;;;;;;;13.10;70.32;101530.31;5015401;28;116793;-35
2022/05/12 01:33:00;;;;;;;1.77;0.90;;;;;;;13.10;70.46;101532.19;5015371;28;117071;-35
2022/05/12 01:35:25;;;;;;;1.42;0.60;;;;;;;13.07;71.15;101532.38;5016170;28;97838;-35
2022/05/12 01:37:51;;;;;;;3.35;0.77;;;;;;;13.04;70.85;101535.25;5016108;28;97911;-34
2022/05/12 01:40:20;;;;;;;1.15;0.60;;;;;;;13.00;70.61;101537.31;5015928;28;96489;-34
2022/05/12 01:42:46;;;;;;;0.55;0.47;;;;;;;13.00;71.27;101537.31;5016691;28;96785;-35
2022/05/12 01:45:11;;;;;;;0.88;0.68;;;;;;;13.00;71.28;101542.75;5015499;28;99462;-35
2022/05/12 01:47:38;;;;;;;1.65;0.75;;;;;;;12.91;71.58;101535.13;5016152;28;97332;-35
2022/05/12 01:50:05;;;;;;;2.38;0.93;;;;;;;13.02;71.33;101567.16;4997563;28;96619;-35
2022/05/12 01:52:30;;;;;;;1.60;0.75;;;;;;;12.93;71.14;101553.13;4997844;28;96963;-34
2022/05/12 01:54:56;;;;;;;2.85;1.02;;;;;;;13.00;71.06;101559.06;5015711;28;97417;-34
2022/05/12 01:57:22;;;;;;;3.10;0.85;;;;;;;12.99;71.20;101560.03;5016004;28;96477;-35
2022/05/12 01:59:49;;;;;;;1.35;0.50;;;;;;;12.93;71.47;101550.38;5016055;28;96498;-35
2022/05/12 02:02:14;;;;;;;0.60;0.60;;;;;;;12.99;70.95;101560.03;4997917;28;96864;-34
2022/05/12 02:04:40;;;;;;;1.65;0.80;;;;;;;12.93;71.74;101564.00;4997295;28;100845;-35
2022/05/12 02:07:06;;;;;;;0.90;0.65;;;;;;;12.91;70.65;101567.78;5015628;28;99212;-35
2022/05/12 02:09:31;;;;;;;2.70;1.50;;;;;;;12.87;71.07;101563.47;5015911;28;96793;-35
2022/05/12 02:11:57;;;;;;;1.90;1.08;;;;;;;12.88;71.51;101565.25;5014338;28;117225;-34
2022/05/12 02:14:22;;;;;;;3.47;1.40;;;;;;;12.86;71.30;101568.03;5014763;28;99754;-34
2022/05/12 02:16:48;;;;;;;2.63;1.17;;;;;;;12.89;71.89;101570.56;5014839;28;110528;-34
2022/05/12 02:19:13;;;;;;;4.10;1.17;;;;;;;12.92;71.77;101577.69;5015397;28;96529;-35
2022/05/12 02:21:38;;;;;;;1.65;1.00;;;;;;;12.91;71.04;101582.25;5015037;28;116732;-34
2022/05/12 02:24:05;;;;;;;2.55;1.15;;;;;;;12.96;71.26;101590.13;5013981;28;122761;-34
2022/05/12 02:26:30;;;;;;;2.83;1.13;;;;;;;12.92;71.55;101591.28;4996925;28;100786;-35
2022/05/12 02:28:56;;;;;;;4.75;1.75;;;;;;;12.96;71.32;101596.44;5014868;28;96491;-35
2022/05/12 02:31:22;;;;;;;2.85;0.80;;;;;;;12.86;71.25;101594.38;5015794;28;96898;-35
2022/05/12 02:33:47;;;;;;;3.38;1.25;;;;;;;12.89;71.41;101605.91;4996946;28;100897;-35
2022/05/12 02:36:13;;;;;;;2.50;1.15;;;;;;;12.90;70.48;101604.09;5015402;28;97272;-34
2022/05/12 02:38:39;;;;;;;1.48;1.02;;;;;;;12.86;72.07;101616.13;5014718;28;96581;-35
2022/05/12 02:41:05;;;;;;;2.70;0.98;;;;;;;12.72;72.45;101604.19;5015395;28;96749;-34
2022/05/12 02:43:31;;;;;;;2.35;1.13;;;;;;;12.78;71.37;101602.97;5015065;28;97960;-34
2022/05/12 02:46:00;;;;;;;1.77;0.88;;;;;;;12.84;71.22;101618.91;4996570;28;100953;-35
2022/05/12 02:48:29;;;;;;;1.92;1.30;;;;;;;12.85;71.49;101620.69;4997149;28;96764;-35
2022/05/12 02:50:55;;;;;;;1.98;1.15;;;;;;;12.85;70.88;101617.97;4997131;28;96835;-34
2022/05/12 02:53:20;;;;;;;2.03;1.08;;;;;;;12.85;71.06;101631.56;5014608;28;97971;-35
2022/05/12 02:55:46;;;;;;;1.90;1.00;;;;;;;12.89;71.28;101632.25;4996891;28;101167;-35
2022/05/12 02:58:12;;;;;;;1.30;0.82;;;;;;;12.85;70.94;101625.25;5015539;28;96439;-35
2022/05/12 03:00:38;;;;;;;3.30;1.13;;;;;;;12.85;71.04;101630.69;4996869;28;96937;-34
2022/05/12 03:03:08;;;;;;;3.85;1.13;;;;;;;12.78;71.80;101619.28;4979480;28;101262;-35
2022/05/12 03:05:37;;;;;;;2.08;1.13;;;;;;;12.82;71.50;101642.59;4996501;28;101850;-35
2022/05/12 03:08:14;;;;;;;2.40;1.30;;;;;;;12.80;71.46;101635.50;5014730;28;96642;-35
2022/05/12 03:10:39;;;;;;;5.80;1.02;;;;;;;12.73;70.64;101633.16;5014494;28;96868;-34
2022/05/12 03:13:05;;;;;;;1.77;1.02;;;;;;;12.74;71.79;101628.59;5014031;28;98009;-35
2022/05/12 03:15:31;;;;;;;2.75;1.35;;;;;;;12.79;71.00;101650.94;4996427;28;100991;-35
2022/05/12 03:17:57;;;;;;;2.65;1.05;;;;;;;12.78;71.63;101657.34;5014729;28;96517;-35
2022/05/12 03:20:25;;;;;;;2.17;1.17;;;;;;;12.71;71.16;101647.81;5015001;28;96805;-35
2022/05/12 03:22:50;;;;;;;2.45;1.20;;;;;;;12.71;71.30;101661.38;4996269;28;101080;-35
2022/05/12 03:25:17;;;;;;;2.00;0.90;;;;;;;12.73;70.94;101667.63;4996326;28;99417;-34
2022/05/12 03:27:43;;;;;;;2.90;0.80;;;;;;;12.69;70.84;101658.75;5014083;28;96583;-34
2022/05/12 03:30:13;;;;;;;1.60;1.10;;;;;;;12.71;70.81;101667.69;4996623;28;96709;-34
2022/05/12 03:32:38;;;;;;;1.75;1.02;;;;;;;12.67;71.09;101660.69;4996188;28;100999;-34
2022/05/12 03:35:05;;;;;;;2.28;1.27;;;;;;;12.63;71.01;101663.66;5014073;28;97813;-35
2022/05/12 03:37:31;;;;;;;4.55;1.42;;;;;;;12.67;71.51;101682.41;4996489;28;96755;-34
2022/05/12 03:39:56;;;;;;;2.63;1.02;;;;;;;12.58;71.31;101666.63;5017170;28;96764;-34
2022/05/12 03:42:21;;;;;;;3.15;1.38;;;;;;;12.52;71.66;101670.59;5016901;28;127863;-35
2022/05/12 03:44:47;;;;;;;4.80;1.00;;;;;;;12.53;70.72;101675.03;5017087;28;126663;-35
2022/05/12 03:47:21;;;;;;;4.75;1.10;;;;;;;12.51;71.27;101686.97;5018076;28;96529;-34
2022/05/12 03:49:49;;;;;;;2.72;1.20;;;;;;;12.53;71.30;101693.19;5018271;28;96578;-34
2022/05/12 03:52:15;;;;;;;2.40;1.23;;;;;;;12.50;70.86;101687.94;4998949;28;101004;-34
2022/05/12 03:54:41;;;;;;;3.50;0.90;;;;;;;12.50;71.03;101701.53;4999400;28;101002;-34
2022/05/12 03:57:06;;;;;;;1.40;0.80;;;;;;;12.45;71.18;101692.75;5017777;28;96527;-34
2022/05/12 03:59:33;;;;;;;1.90;1.15;;;;;;;12.39;71.31;101680.38;5018064;28;96789;-34
2022/05/12 04:01:58;;;;;;;1.80;0.95;;;;;;;12.41;71.31;101696.59;4999263;28;101438;-35
2022/05/12 04:04:24;;;;;;;1.58;1.13;;;;;;;12.38;70.82;101694.06;5017354;28;97825;-34
2022/05/12 04:06:49;;;;;;;2.38;1.05;;;;;;;12.39;71.09;101691.25;5016810;28;108685;-35
2022/05/12 04:09:15;;;;;;;1.45;1.05;;;;;;;12.40;70.71;101698.44;5017961;28;96792;-34
2022/05/12 04:11:40;;;;;;;3.83;1.20;;;;;;;12.43;70.68;101717.28;5016599;28;99440;-34
2022/05/12 04:14:06;;;;;;;6.03;0.98;;;;;;;12.41;70.70;101715.63;5015084;28;121505;-35
2022/05/12 04:16:32;;;;;;;1.85;0.93;;;;;;;12.43;71.06;101716.44;5016639;28;96898;-35
2022/05/12 04:18:58;;;;;;;2.03;0.85;;;;;;;12.43;71.13;101720.00;5017211;28;96754;-35
2022/05/12 04:21:23;;;;;;;1.65;0.52;;;;;;;12.44;70.93;101721.78;4999099;28;100942;-35
2022/05/12 04:23:48;;;;;;;4.90;0.77;;;;;;;12.41;70.68;101715.63;5016960;28;99515;-35
2022/05/12 04:26:14;;;;;;;2.38;1.20;;;;;;;12.44;70.31;101724.50;5017126;28;96586;-35
2022/05/12 04:28:39;;;;;;;2.20;1.35;;;;;;;12.35;71.25;101713.22;5017211;28;96857;-35
2022/05/12 04:31:04;;;;;;;1.85;1.00;;;;;;;12.36;70.91;101715.88;5016636;28;105310;-35
2022/05/12 04:36:14;;;;;;;3.35;0.70;;;;;;;12.36;70.53;101724.03;5017771;28;96501;-35
2022/05/12 04:38:40;;;;;;;3.42;1.10;;;;;;;12.42;70.11;101730.94;4999019;28;96872;-35
2022/05/12 04:41:06;;;;;;;2.92;1.23;;;;;;;12.38;70.26;101737.53;4998074;28;101107;-34
2022/05/12 04:43:32;;;;;;;2.15;0.90;;;;;;;12.42;70.62;101744.53;5016599;28;99099;-35
2022/05/12 04:45:57;;;;;;;2.28;0.93;;;;;;;12.41;70.22;101750.94;5016819;28;96619;-35
2022/05/12 04:48:23;;;;;;;1.42;0.68;;;;;;;12.41;69.85;101745.50;5016819;28;96794;-35
2022/05/12 04:50:49;;;;;;;6.25;0.80;;;;;;;12.45;69.78;101753.41;4998006;28;100895;-35
2022/05/12 04:53:14;;;;;;;1.00;0.60;;;;;;;12.46;69.99;101757.00;5016784;28;97887;-35
2022/05/12 04:55:40;;;;;;;5.13;1.15;;;;;;;12.47;69.71;101756.94;5016641;28;100700;-35
2022/05/12 04:58:05;;;;;;;3.90;1.00;;;;;;;12.38;70.10;101742.97;5017063;28;96770;-35
2022/05/12 05:00:40;;;;;;;0.85;0.65;;;;;;;12.47;70.14;101753.34;5016409;28;97917;-35
2022/05/12 05:03:07;;;;;;;1.35;0.98;;;;;;;12.48;69.89;101760.53;4998411;28;100958;-35
2022/05/12 05:05:33;;;;;;;2.00;1.10;;;;;;;12.50;69.66;101761.31;4997948;28;96585;-35
2022/05/12 05:07:59;;;;;;;2.10;0.80;;;;;;;12.54;69.96;101773.78;4998545;28;96714;-35
2022/05/12 05:10:26;;;;;;;1.35;0.90;;;;;;;12.50;69.69;101769.47;5016043;28;97903;-35
2022/05/12 05:12:53;;;;;;;2.13;0.82;;;;;;;12.51;69.10;101765.78;5007244;28;101072;-35
2022/05/12 05:15:20;;;;;;;2.08;1.27;;;;;;;12.54;69.10;101769.22;5036742;28;96512;-35
2022/05/12 05:17:48;;;;;;;2.55;1.20;;;;;;;12.66;68.91;101789.41;5018380;28;96860;-35
2022/05/12 05:20:17;;;;;;;4.55;0.82;;;;;;;12.68;68.78;101789.31;5035967;28;98080;-34
2022/05/12 05:22:44;;;;;;;3.60;0.98;;;;;;;12.71;68.16;101798.19;5018060;28;100928;-35
2022/05/12 05:25:10;;;;;;;1.63;0.95;;;;;;;12.78;68.16;101803.28;5032934;28;96698;-35
2022/05/12 05:27:37;;;;;;;4.68;1.35;;;;;;;12.74;68.36;101795.28;5034807;28;97514;-35
2022/05/12 05:30:05;;;;;;;1.55;0.90;;;;;;;12.83;68.05;101795.75;5017210;28;101139;-35
2022/05/12 05:32:30;;;;;;;1.48;0.90;;;;;;;12.90;68.26;101803.47;5036207;28;97879;-34
2022/05/12 05:34:56;;;;;;;5.25;1.00;;;;;;;12.95;67.85;101806.81;5036526;28;96666;-34
2022/05/12 05:37:22;;;;;;;1.30;0.88;;;;;;;13.03;67.56;101806.38;5036392;28;96792;-34
2022/05/12 05:39:48;;;;;;;1.42;1.10;;;;;;;13.17;67.17;101821.91;5017805;28;100800;-34
2022/05/12 05:42:15;;;;;;;6.05;1.20;;;;;;;13.17;67.17;101817.34;5017900;28;100830;-34
2022/05/12 05:44:41;;;;;;;1.13;0.73;;;;;;;13.24;67.07;101826.03;5034727;28;96700;-34
2022/05/12 05:47:07;;;;;;;1.55;0.93;;;;;;;13.28;67.49;101832.25;5037008;28;96713;-34
2022/05/12 05:49:33;;;;;;;4.30;1.10;;;;;;;13.33;67.06;101833.72;5017489;28;101377;-34
2022/05/12 05:54:43;;;;;;;2.08;0.90;;;;;;;13.54;66.91;101845.22;5036238;28;96653;-34
2022/05/12 05:57:09;;;;;;;3.08;1.02;;;;;;;13.63;66.73;101851.94;5036084;28;96801;-34
2022/05/12 05:59:36;;;;;;;5.95;1.05;;;;;;;13.72;66.58;101856.00;5035526;28;98986;-34
2022/05/12 06:02:01;;;;;;;1.85;1.00;;;;;;;13.78;66.28;101852.91;5034637;27;99203;-34
2022/05/12 06:04:27;;;;;;;3.10;1.20;;;;;;;13.84;65.84;101849.81;5035889;28;96485;-34
2022/05/12 06:06:52;;;;;;;4.85;0.98;;;;;;;13.91;65.65;101861.22;5017695;28;96900;-34
2022/05/12 06:09:19;;;;;;;6.05;1.23;;;;;;;14.02;65.74;101866.94;5035429;28;97862;-34
2022/05/12 06:11:45;;;;;;;4.80;0.93;;;;;;;14.05;65.47;101853.09;5035536;28;99286;-34
2022/05/12 06:14:11;;;;;;;1.58;0.90;;;;;;;14.16;65.18;101858.81;5018366;28;96875;-34
2022/05/12 06:16:36;;;;;;;2.33;1.13;;;;;;;14.25;65.10;101862.78;5015479;28;97120;-34
2022/05/12 06:19:03;;;;;;;1.30;0.93;;;;;;;14.31;64.93;101876.06;5014594;28;98997;-34
2022/05/12 06:21:28;;;;;;;1.63;0.90;;;;;;;14.42;64.54;101878.16;4997311;28;100664;-35
2022/05/12 06:23:54;;;;;;;2.28;1.00;;;;;;;14.48;64.16;101869.56;5014586;28;114362;-34
2022/05/12 06:26:20;;;;;;;3.13;1.27;;;;;;;14.64;64.31;101872.28;5014848;28;110054;-34
2022/05/12 06:28:47;;;;;;;1.83;1.13;;;;;;;14.76;63.87;101885.13;5013750;28;100966;-34
2022/05/12 06:31:24;;;;;;;4.05;1.00;;;;;;;14.88;63.44;101885.34;4997046;28;98986;-34
2022/05/12 06:33:53;;;;;;;6.57;1.23;;;;;;;15.01;63.25;101887.19;4997383;28;96800;-34
2022/05/12 06:36:19;;;;;;;2.13;1.13;;;;;;;15.12;62.94;101894.69;4996713;28;96858;-34
2022/05/12 06:38:44;;;;;;;6.30;2.00;;;;;;;15.17;62.73;101895.28;5014992;28;98017;-34
2022/05/12 06:41:10;;;;;;;6.22;1.80;;;;;;;15.30;62.14;101898.06;5014918;28;97952;-34
2022/05/12 06:43:36;;;;;;;6.10;1.77;;;;;;;15.38;61.92;101900.34;5014804;28;96660;-34
2022/05/12 06:46:03;;;;;;;4.43;1.67;;;;;;;15.48;61.72;101905.06;4997018;28;96841;-34
2022/05/12 06:48:28;;;;;;;3.38;1.65;;;;;;;15.54;61.87;101900.19;4996662;28;101072;-34
2022/05/12 06:50:54;;;;;;;3.85;1.30;;;;;;;15.58;61.64;101901.75;5013879;28;97943;-34
2022/05/12 06:53:19;;;;;;;3.92;1.80;;;;;;;15.68;61.04;101901.06;5015248;28;96774;-34
2022/05/12 06:55:45;;;;;;;3.28;1.73;;;;;;;15.75;60.73;101898.78;5015146;28;96781;-34
2022/05/12 06:58:11;;;;;;;11.10;2.40;;;;;;;15.96;60.88;101915.63;5014630;28;98694;-34
2022/05/12 07:00:38;;;;;;;2.75;1.83;;;;;;;16.08;61.33;101922.13;4996809;28;100786;-34
2022/05/12 07:03:04;;;;;;;4.03;2.30;;;;;;;16.18;60.04;101922.38;5013801;28;118716;-34
2022/05/12 07:05:30;;;;;;;4.38;1.95;;;;;;;16.32;59.90;101919.56;5014348;28;96988;-34
2022/05/12 07:07:56;;;;;;;4.03;1.58;;;;;;;16.41;59.96;101918.94;5014070;28;98897;-34
2022/05/12 07:10:24;;;;;;;5.97;1.67;;;;;;;16.44;58.49;101918.72;5014331;28;97771;-34
2022/05/12 07:12:50;;;;;;;4.43;1.83;;;;;;;16.46;58.46;101911.28;4996307;28;96794;-34
2022/05/12 07:15:15;;;;;;;4.30;2.05;;;;;;;16.61;59.19;101916.66;5012912;28;96885;-34
2022/05/12 07:17:43;;;;;;;3.40;1.65;;;;;;;16.77;58.75;101939.22;5014067;28;99420;-34
2022/05/12 07:28:25;;;;;;;2.88;1.35;;;;;;;17.16;56.01;101932.81;5014415;28;97071;-34
2022/05/12 07:31:03;;;;;;;3.10;1.25;;;;;;;17.33;56.18;101955.38;5014293;28;97888;-34
2022/05/12 07:33:30;;;;;;;5.03;1.27;;;;;;;17.37;55.62;101945.94;5012814;28;96626;-34
2022/05/12 07:35:57;;;;;;;4.10;1.05;;;;;;;17.54;56.09;101961.13;4996415;28;97002;-34
2022/05/12 07:38:22;;;;;;;3.47;1.50;;;;;;;17.59;55.78;101957.09;4996073;28;101073;-34
2022/05/12 07:40:47;;;;;;;1.92;1.25;;;;;;;17.68;55.17;101955.50;5014137;28;97745;-34
2022/05/12 07:43:13;;;;;;;3.47;2.05;;;;;;;17.80;55.79;101959.22;5014357;28;96603;-34
2022/05/12 07:45:38;;;;;;;5.38;2.08;;;;;;;17.86;55.81;101952.44;5013676;28;116388;-34
2022/05/12 07:48:04;;;;;;;4.35;1.60;;;;;;;17.94;54.77;101944.50;5013052;28;126838;-34
2022/05/12 07:50:29;;;;;;;6.65;2.15;;;;;;;18.10;54.13;101953.34;4996252;28;101792;-34
2022/05/12 07:52:55;;;;;;;2.78;1.52;;;;;;;18.25;53.98;101952.16;5014319;28;96563;-34
2022/05/12 07:55:20;;;;;;;4.63;1.65;;;;;;;18.37;54.54;101953.09;4996085;28;96848;-34
2022/05/12 07:57:46;;;;;;;2.03;1.20;;;;;;;18.48;53.98;101957.75;5013476;28;102455;-34
2022/05/12 08:00:11;;;;;;;7.57;1.67;;;;;;;18.58;51.51;101955.16;5014079;28;97772;-34
2022/05/12 08:02:37;;;;;;;4.78;1.33;;;;;;;18.59;51.57;101962.41;4996273;28;96737;-34
2022/05/12 08:05:04;;;;;;;5.65;1.80;;;;;;;18.61;52.50;101960.41;5013157;28;116756;-34
2022/05/12 08:07:30;;;;;;;3.83;1.25;;;;;;;18.61;52.82;101965.91;4995664;28;100873;-34
2022/05/12 08:09:57;;;;;;;3.08;1.27;;;;;;;18.71;52.81;101966.06;4995560;28;100801;-34
2022/05/12 08:12:23;;;;;;;4.13;1.75;;;;;;;18.76;51.38;101966.56;5013681;28;96850;-34
2022/05/12 08:14:48;;;;;;;3.63;1.33;;;;;;;18.84;52.85;101959.53;5014723;28;96525;-34
2022/05/12 08:17:14;;;;;;;1.95;1.00;;;;;;;19.09;51.28;101968.53;5013278;28;98793;-34
2022/05/12 08:19:39;;;;;;;4.75;1.00;;;;;;;19.18;51.54;101951.34;5013269;28;111429;-34
2022/05/12 08:22:04;;;;;;;6.28;1.15;;;;;;;19.37;51.14;101972.69;5012910;28;108911;-34
2022/05/12 08:24:29;;;;;;;2.97;0.90;;;;;;;19.48;49.79;101963.59;5012724;28;110821;-34
2022/05/12 08:26:55;;;;;;;5.40;1.30;;;;;;;19.51;50.33;101972.44;5015102;28;126776;-34
2022/05/12 08:29:20;;;;;;;4.07;1.30;;;;;;;19.03;50.69;101977.28;5016015;28;126290;-34
2022/05/12 08:31:45;;;;;;;6.50;1.55;;;;;;;18.99;50.19;101973.03;5017298;28;96486;-34
2022/05/12 08:34:11;;;;;;;5.18;1.13;;;;;;;19.13;50.30;101971.94;5016692;28;116595;-34
2022/05/12 08:36:36;;;;;;;4.45;0.80;;;;;;;19.34;48.92;101983.94;5015945;28;126984;-34
2022/05/12 08:39:02;;;;;;;2.67;1.10;;;;;;;19.32;49.23;101977.69;5016476;28;116331;-34
2022/05/12 08:41:40;;;;;;;7.70;1.38;;;;;;;19.37;50.01;101986.44;5016903;28;96515;-34
2022/05/12 08:44:14;;;;;;;2.20;1.00;;;;;;;19.52;49.01;101985.22;4999118;28;96752;-34
2022/05/12 08:46:44;;;;;;;7.05;0.95;;;;;;;19.56;47.70;101987.69;4998270;28;101212;-34
2022/05/12 08:49:21;;;;;;;2.85;0.95;;;;;;;19.73;49.97;101993.63;4998639;28;100969;-34
2022/05/12 08:52:05;;;;;;;1.60;1.08;;;;;;;19.96;47.60;101989.97;4998793;28;96724;-34
2022/05/12 08:54:33;;;;;;;2.45;1.30;;;;;;;19.47;49.09;101986.56;5017193;28;96553;-34
2022/05/12 08:57:04;;;;;;;2.08;1.10;;;;;;;19.46;49.49;101993.94;5016562;28;98092;-34
2022/05/12 08:59:38;;;;;;;2.40;1.03;;;;;;;19.68;47.97;101989.47;4998454;28;101024;-34
2022/05/12 09:02:24;;;;;;;4.00;1.00;;;;;;;19.68;47.77;101986.72;4998552;28;96742;-35
2022/05/12 09:05:05;;;;;;;2.30;1.20;;;;;;;19.78;47.45;102000.59;4999144;28;96612;-34
2022/05/12 09:07:59;;;;;;;2.55;1.00;;;;;;;19.74;45.44;101997.22;4998491;28;101278;-34
2022/05/12 09:10:41;;;;;;;4.22;1.00;;;;;;;19.99;47.80;101992.44;5015685;28;97921;-34
2022/05/12 09:13:18;;;;;;;;;;;;;;;20.13;47.41;101994.91;5015985;28;96851;-34
2022/05/12 09:15:56;;;;;;;2.90;1.30;;;;;;;20.22;45.13;101982.28;5032224;28;96669;-34
2022/05/12 09:18:29;;;;;;;3.80;1.35;;;;;;;20.04;46.80;101987.44;4997828;28;100666;-34
2022/05/12 09:21:00;;;;;;;2.78;1.55;;;;;;;20.40;47.01;101996.34;4998099;28;101327;-34
2022/05/12 09:23:25;;;;;;;6.13;1.57;;;;;;;20.33;46.32;101991.38;4998491;28;96828;-34
2022/05/12 09:25:52;;;;;;;6.50;1.30;;;;;;;20.11;46.58;101991.41;5015455;28;116947;-34
2022/05/12 09:28:39;;;;;;;5.35;1.60;;;;;;;20.29;46.37;101995.38;5016138;28;98205;-34
2022/05/12 09:31:17;;;;;;;2.72;1.10;;;;;;;20.46;44.65;101991.19;4998461;28;101035;-34
2022/05/12 09:33:45;;;;;;;5.55;1.27;;;;;;;20.10;47.04;101981.44;5016190;28;96675;-34
2022/05/12 09:36:25;;;;;;;1.25;1.00;;;;;;;20.03;47.24;101988.44;4997918;28;96790;-34
2022/05/12 09:38:54;;;;;;;3.72;1.10;;;;;;;19.99;46.02;102003.44;4997424;28;101032;-34
2022/05/12 09:41:37;;;;;;;3.42;0.93;;;;;;;20.15;46.11;101993.78;5015809;28;99304;-34
2022/05/12 09:44:19;;;;;;;6.28;1.10;;;;;;;20.06;46.67;101985.44;4998086;28;96634;-34
2022/05/12 09:46:55;;;;;;;3.83;1.08;;;;;;;20.11;45.99;101996.91;5014726;28;96878;-34
2022/05/12 09:49:23;;;;;;;4.45;1.00;;;;;;;20.46;46.29;102001.34;4997706;28;101389;-34
2022/05/12 09:51:49;;;;;;;5.00;1.13;;;;;;;20.75;46.14;102002.47;4997575;28;100591;-34
2022/05/12 09:54:29;;;;;;;2.92;0.88;;;;;;;20.70;44.53;101993.75;4997762;28;96790;-34
2022/05/12 09:57:10;;;;;;;2.55;1.10;;;;;;;20.76;43.64;101998.72;5030871;28;111399;-34
2022/05/12 09:59:36;;;;;;;5.97;1.42;;;;;;;20.91;45.24;102003.91;5015785;28;98166;-34
2022/05/12 10:02:04;;;;;;;2.97;0.90;;;;;;;21.01;44.29;102007.59;4997467;28;101091;-34
2022/05/12 10:10:22;;;;;;;4.07;1.05;;;;;;;20.51;44.38;101985.28;5014419;28;97001;-34
2022/05/12 10:12:54;;;;;;;4.25;1.25;;;;;;;20.72;44.47;102002.75;5002295;28;101101;-34
2022/05/12 10:15:31;;;;;;;1.88;0.85;;;;;;;21.05;42.58;102002.72;5034372;28;96610;-34
2022/05/12 10:18:30;;;;;;;1.60;0.85;;;;;;;21.12;43.48;102003.91;5035694;28;96769;-34
2022/05/12 10:21:06;;;;;;;4.93;1.33;;;;;;;20.77;43.20;101988.59;5017201;28;100847;-34
2022/05/12 10:23:57;;;;;;;9.45;1.33;;;;;;;20.78;43.78;101999.47;5017505;28;100765;-35
2022/05/12 10:26:33;;;;;;;1.40;0.98;;;;;;;20.88;42.97;101995.91;5035686;28;96543;-34
2022/05/12 10:29:08;;;;;;;1.85;0.80;;;;;;;21.26;42.83;102008.19;5017434;28;96881;-34
2022/05/12 10:31:52;;;;;;;1.92;0.80;;;;;;;21.45;42.08;101993.69;5016380;28;100822;-34
2022/05/12 10:34:29;;;;;;;9.55;1.23;;;;;;;21.67;41.44;101996.25;5033799;28;101492;-35
2022/05/12 10:37:06;;;;;;;3.42;0.85;;;;;;;21.45;42.13;101980.75;5035471;28;96568;-35
2022/05/12 10:39:31;;;;;;;2.22;1.08;;;;;;;21.55;41.45;102001.00;5017309;28;96814;-35
2022/05/12 10:42:05;;;;;;;3.30;0.87;;;;;;;21.42;42.07;101990.19;5034750;28;103471;-35
2022/05/12 10:45:09;;;;;;;3.13;0.88;;;;;;;21.30;40.47;101998.66;5033071;28;100821;-33
2022/05/12 10:47:53;;;;;;;5.30;1.30;;;;;;;21.37;41.64;101997.97;5028229;27;97062;-35
2022/05/12 10:50:53;;;;;;;3.03;0.98;;;;;;;21.51;41.97;102005.03;5033012;28;96882;-35
2022/05/12 10:53:29;;;;;;;5.00;0.90;;;;;;;21.42;39.64;101984.66;5032546;27;98052;-34
2022/05/12 10:56:35;;;;;;;3.92;1.05;;;;;;;21.46;39.97;101979.75;5033325;28;101367;-35
2022/05/12 10:59:07;;;;;;;1.95;0.90;;;;;;;21.69;40.31;101979.56;5016580;28;96535;-35
2022/05/12 11:01:40;;;;;;;2.00;0.90;;;;;;;21.79;39.96;101975.84;5033583;28;96636;-35
2022/05/12 11:04:18;;;;;;;3.08;0.93;;;;;;;22.15;40.04;101992.78;5050843;27;97686;-35
2022/05/12 11:06:49;;;;;;;2.10;0.77;;;;;;;22.14;38.49;101973.59;5033803;28;120457;-35
2022/05/12 11:09:31;;;;;;;4.40;1.00;;;;;;;21.67;37.46;101976.09;5031879;28;96702;-35
2022/05/12 11:12:03;;;;;;;2.08;0.65;;;;;;;21.35;41.20;101977.06;5032162;28;96997;-35
2022/05/12 11:14:33;;;;;;;1.42;0.70;;;;;;;20.97;41.00;101989.59;5032265;28;102353;-35
2022/05/12 11:17:25;;;;;;;4.43;0.77;;;;;;;20.87;40.17;101983.16;5034758;28;99098;-35
2022/05/12 11:20:12;;;;;;;1.08;0.60;;;;;;;20.86;40.45;101992.44;5016788;28;96587;-35
2022/05/12 11:22:47;;;;;;;2.75;0.90;;;;;;;20.41;41.00;101987.09;5033523;28;96713;-35
2022/05/12 11:25:31;;;;;;;5.10;0.88;;;;;;;20.45;40.97;101989.44;5015792;28;101149;-34
2022/05/12 11:31:21;;;;;;;2.45;0.70;;;;;;;20.08;41.70;101980.69;5035304;28;96688;-34
2022/05/12 11:33:52;;;;;;;2.23;0.77;;;;;;;20.10;41.27;101976.78;5035078;28;97149;-34
2022/05/12 11:36:17;;;;;;;5.28;1.55;;;;;;;20.10;42.51;101975.94;5016083;28;101329;-35
2022/05/12 11:38:49;;;;;;;1.65;0.85;;;;;;;19.96;41.96;101988.06;5034132;28;99093;-35
2022/05/12 11:41:21;;;;;;;3.60;1.00;;;;;;;20.39;41.81;101994.59;5033148;28;96489;-35
2022/05/12 11:46:41;;;;;;;2.47;0.82;;;;;;;20.96;39.67;101985.09;5033941;28;97093;-34
2022/05/12 11:49:15;;;;;;;5.88;1.00;;;;;;;20.82;40.62;101975.28;5032720;28;101123;-34
2022/05/12 11:52:25;;;;;;;2.30;0.95;;;;;;;20.60;40.85;101984.53;5032620;28;96712;-34
2022/05/12 11:54:59;;;;;;;2.75;1.10;;;;;;;20.84;41.05;101977.91;4996416;28;96752;-34
2022/05/12 11:57:36;;;;;;;3.97;1.20;;;;;;;20.98;40.81;101977.56;5032593;28;101055;-34